Time;durP1;ratioP1;P1;durP2;ratioP2;P2;SDS_P1;SDS_P2;PMS_P1;PMS_P2;Temp;Humidity;BMP_temperature;BMP_pressure;BME280_temperature;BME280_humidity;BME280_pressure;Samples;Min_cycle;Max_cycle;Signal;HPM_P1;HPM_P2
2020/12/21 00:00:31;;;;;;;25.90;3.20;;;9.70;99.90;;;;;;5069729;28;20072;-46
2020/12/21 00:02:57;;;;;;;21.98;2.90;;;9.70;99.90;;;;;;5069667;28;20394;-46
2020/12/21 00:05:23;;;;;;;38.00;3.35;;;9.80;99.90;;;;;;5069719;28;20036;-47
2020/12/21 00:07:48;;;;;;;37.35;4.57;;;9.90;99.90;;;;;;5069836;28;20420;-48
2020/12/21 00:10:14;;;;;;;27.13;3.28;;;9.90;99.90;;;;;;5069791;28;20029;-45
2020/12/21 00:12:40;;;;;;;29.73;4.15;;;10.00;99.90;;;;;;5070220;28;20040;-45
2020/12/21 00:15:06;;;;;;;38.47;4.47;;;10.00;99.90;;;;;;5068880;28;20113;-45
2020/12/21 00:17:33;;;;;;;51.75;5.10;;;10.00;99.90;;;;;;5068619;28;20059;-46
2020/12/21 00:19:59;;;;;;;32.80;4.55;;;10.00;99.90;;;;;;5068794;28;20536;-46
2020/12/21 00:22:25;;;;;;;41.15;4.60;;;10.00;99.90;;;;;;5071248;28;20036;-46
2020/12/21 00:24:50;;;;;;;44.60;4.32;;;10.00;99.90;;;;;;5051333;28;20045;-47
2020/12/21 00:27:16;;;;;;;35.90;4.38;;;10.00;99.90;;;;;;5069563;28;20113;-45
2020/12/21 00:29:42;;;;;;;30.20;4.63;;;10.00;99.90;;;;;;5069422;28;20103;-46
2020/12/21 00:32:07;;;;;;;39.20;5.25;;;10.00;99.90;;;;;;5069916;28;20111;-48
2020/12/21 00:34:33;;;;;;;52.38;6.10;;;10.10;99.90;;;;;;5069291;28;20124;-47
2020/12/21 00:36:59;;;;;;;47.53;6.07;;;10.10;99.90;;;;;;5069538;28;20079;-47
2020/12/21 00:39:24;;;;;;;45.65;5.57;;;10.10;99.90;;;;;;5069705;28;20074;-46
2020/12/21 00:41:50;;;;;;;49.72;5.60;;;10.20;99.90;;;;;;5069413;28;20090;-48
2020/12/21 00:44:16;;;;;;;47.42;6.25;;;10.30;99.90;;;;;;5068833;28;20682;-46
2020/12/21 00:46:42;;;;;;;35.97;5.57;;;10.30;99.90;;;;;;5069813;28;20032;-48
2020/12/21 00:49:09;;;;;;;45.05;7.03;;;10.30;99.90;;;;;;5069463;28;20032;-46
2020/12/21 00:51:35;;;;;;;32.10;3.90;;;10.40;99.90;;;;;;5069211;28;20764;-47
2020/12/21 00:54:02;;;;;;;29.02;4.45;;;10.50;99.90;;;;;;5069141;28;20075;-46
2020/12/21 00:56:27;;;;;;;35.28;4.78;;;10.40;99.90;;;;;;5069320;28;20032;-47
2020/12/21 00:58:53;;;;;;;35.70;4.55;;;10.40;99.90;;;;;;5068363;28;20059;-45
2020/12/21 01:01:29;;;;;;;45.75;4.90;;;10.40;99.90;;;;;;5071521;28;20086;-46
2020/12/21 01:03:55;;;;;;;35.63;4.38;;;10.40;99.90;;;;;;5068914;28;20032;-46
2020/12/21 01:06:21;;;;;;;32.22;4.70;;;10.40;99.90;;;;;;5034382;28;20063;-47
2020/12/21 01:08:47;;;;;;;37.95;5.10;;;10.50;99.90;;;;;;5068573;28;20060;-46
2020/12/21 01:11:15;;;;;;;30.42;4.45;;;10.50;99.90;;;;;;5068773;28;20051;-47
2020/12/21 01:13:43;;;;;;;53.70;5.03;;;10.60;99.90;;;;;;5068363;28;20056;-47
2020/12/21 01:16:09;;;;;;;36.85;4.32;;;10.60;99.90;;;;;;5068940;28;20632;-48
2020/12/21 01:18:35;;;;;;;39.65;5.00;;;10.70;99.90;;;;;;5050659;28;20093;-46
2020/12/21 01:21:01;;;;;;;30.92;4.75;;;10.70;99.90;;;;;;5051113;28;20067;-46
2020/12/21 01:23:27;;;;;;;27.35;4.60;;;10.70;99.90;;;;;;5068262;28;20055;-45
2020/12/21 01:25:52;;;;;;;39.40;4.47;;;10.70;99.90;;;;;;5068527;28;20037;-45
2020/12/21 01:28:18;;;;;;;41.55;5.25;;;10.70;99.90;;;;;;5068635;28;20044;-47
2020/12/21 01:30:44;;;;;;;48.05;5.18;;;10.60;99.90;;;;;;5068524;28;20064;-46
2020/12/21 01:33:11;;;;;;;31.83;4.13;;;10.60;99.90;;;;;;5068507;28;20198;-48
2020/12/21 01:35:36;;;;;;;34.58;5.40;;;10.60;99.90;;;;;;5068381;28;20043;-46
2020/12/21 01:38:03;;;;;;;45.90;4.82;;;10.60;99.90;;;;;;5068164;28;20409;-46
2020/12/21 01:40:28;;;;;;;39.83;5.13;;;10.50;99.90;;;;;;5068560;28;20033;-46
2020/12/21 01:42:54;;;;;;;41.55;4.10;;;10.50;99.90;;;;;;5069011;28;20036;-45
2020/12/21 01:45:20;;;;;;;38.25;4.63;;;10.40;99.90;;;;;;5068077;28;20036;-46
2020/12/21 01:47:46;;;;;;;34.58;4.72;;;10.40;99.90;;;;;;5068101;28;20602;-48
2020/12/21 01:50:13;;;;;;;37.55;4.57;;;10.30;99.90;;;;;;5068061;28;20379;-46
2020/12/21 01:52:39;;;;;;;34.30;4.15;;;10.30;99.90;;;;;;5050057;28;20025;-47
2020/12/21 01:55:05;;;;;;;46.13;5.78;;;10.30;99.90;;;;;;5067960;28;20040;-47
2020/12/21 01:57:31;;;;;;;30.30;4.18;;;10.30;99.90;;;;;;5068079;28;20071;-46
2020/12/21 01:59:56;;;;;;;45.22;5.20;;;10.30;99.90;;;;;;5068305;28;20119;-46
2020/12/21 02:02:22;;;;;;;46.92;5.70;;;10.40;99.90;;;;;;5068101;28;20123;-45
2020/12/21 02:04:48;;;;;;;39.88;5.05;;;10.40;99.90;;;;;;5050154;28;20433;-47
2020/12/21 02:07:15;;;;;;;46.05;6.47;;;10.40;99.90;;;;;;5067854;28;20630;-49
2020/12/21 02:09:42;;;;;;;27.23;3.97;;;10.30;99.90;;;;;;5068226;28;20040;-47
2020/12/21 02:12:11;;;;;;;33.83;4.82;;;10.30;99.90;;;;;;5068079;28;20032;-47
2020/12/21 02:14:37;;;;;;;32.15;6.05;;;10.30;99.90;;;;;;5067998;28;20036;-48
2020/12/21 02:17:03;;;;;;;29.83;3.60;;;10.30;99.90;;;;;;5067323;28;20052;-51
2020/12/21 02:19:29;;;;;;;28.92;4.13;;;10.30;99.90;;;;;;5066746;28;20107;-53
2020/12/21 02:21:54;;;;;;;40.13;5.22;;;10.20;99.90;;;;;;5066873;28;20111;-51
2020/12/21 02:24:20;;;;;;;23.75;3.55;;;10.20;99.90;;;;;;5067591;28;20118;-50
2020/12/21 02:26:46;;;;;;;30.92;4.38;;;10.10;99.90;;;;;;5049051;28;20560;-50
2020/12/21 02:29:11;;;;;;;36.90;3.53;;;10.00;99.90;;;;;;5076328;28;20032;-50
2020/12/21 02:31:37;;;;;;;19.60;2.67;;;10.00;99.90;;;;;;5078123;28;20138;-49
2020/12/21 02:34:03;;;;;;;30.00;4.18;;;10.00;99.90;;;;;;5068868;28;20066;-51
2020/12/21 02:36:29;;;;;;;19.38;3.90;;;9.90;99.90;;;;;;5051627;28;20082;-52
2020/12/21 02:38:54;;;;;;;30.98;3.35;;;9.90;99.90;;;;;;5069138;28;20045;-53
2020/12/21 02:41:20;;;;;;;31.67;3.10;;;9.80;99.90;;;;;;5069104;28;20108;-53
2020/12/21 02:43:46;;;;;;;27.23;2.75;;;9.80;99.90;;;;;;5068783;28;20482;-53
2020/12/21 02:46:15;;;;;;;24.70;4.13;;;9.80;99.90;;;;;;5077477;28;20036;-50
2020/12/21 02:48:41;;;;;;;29.10;3.00;;;9.70;99.90;;;;;;5089108;28;20028;-50
2020/12/21 02:51:07;;;;;;;23.42;3.58;;;9.70;99.90;;;;;;5088514;28;20063;-51
2020/12/21 02:53:33;;;;;;;24.05;3.28;;;9.80;99.90;;;;;;5089024;28;20482;-52
2020/12/21 02:55:58;;;;;;;30.35;3.25;;;9.80;99.90;;;;;;5089031;28;20032;-53
2020/12/21 02:58:24;;;;;;;31.52;4.10;;;9.80;99.90;;;;;;5085446;28;20044;-51
2020/12/21 03:00:50;;;;;;;35.35;3.33;;;9.80;99.90;;;;;;5089598;28;20029;-51
2020/12/21 03:03:16;;;;;;;33.95;4.32;;;9.90;99.90;;;;;;5089319;28;20043;-51
2020/12/21 03:05:43;;;;;;;35.03;3.55;;;9.90;99.90;;;;;;5088625;28;20028;-52
2020/12/21 03:08:10;;;;;;;33.45;3.35;;;9.90;99.90;;;;;;5088705;28;20036;-51
2020/12/21 03:10:37;;;;;;;31.25;3.35;;;9.80;99.90;;;;;;5088946;28;20032;-51
2020/12/21 03:13:04;;;;;;;18.35;2.75;;;9.80;99.90;;;;;;5088961;28;20036;-51
2020/12/21 03:15:29;;;;;;;29.90;3.47;;;9.70;99.90;;;;;;5071100;28;20063;-50
2020/12/21 03:17:55;;;;;;;41.33;5.32;;;9.80;99.90;;;;;;5088660;28;20071;-50
2020/12/21 03:20:21;;;;;;;23.10;3.03;;;9.80;99.90;;;;;;5089437;28;20025;-51
2020/12/21 03:22:47;;;;;;;33.17;4.15;;;9.90;99.90;;;;;;5092290;28;20062;-54
2020/12/21 03:25:13;;;;;;;28.58;3.20;;;9.90;99.90;;;;;;5092534;28;20047;-51
2020/12/21 03:27:40;;;;;;;20.05;3.45;;;9.90;99.90;;;;;;5092145;28;20115;-51
2020/12/21 03:30:06;;;;;;;28.67;4.13;;;9.80;99.90;;;;;;5092540;28;20032;-54
2020/12/21 03:32:32;;;;;;;25.88;4.10;;;9.80;99.90;;;;;;5092171;28;20032;-50
2020/12/21 03:34:58;;;;;;;20.70;3.20;;;9.80;99.90;;;;;;5092401;28;20160;-52
2020/12/21 03:37:23;;;;;;;41.28;3.38;;;9.80;99.90;;;;;;5073945;28;20387;-52
2020/12/21 03:39:49;;;;;;;42.40;3.85;;;9.80;99.90;;;;;;5092204;28;20032;-51
2020/12/21 03:42:14;;;;;;;30.67;3.47;;;9.80;99.90;;;;;;5092333;28;20071;-52
2020/12/21 03:44:40;;;;;;;29.30;3.58;;;9.80;99.90;;;;;;5092518;28;20028;-49
2020/12/21 03:47:06;;;;;;;34.30;3.33;;;9.70;99.90;;;;;;5091720;28;20028;-54
2020/12/21 03:49:31;;;;;;;38.00;3.47;;;9.80;99.90;;;;;;5092105;28;20024;-55
2020/12/21 03:51:57;;;;;;;43.33;5.45;;;9.80;99.90;;;;;;5091761;28;20089;-51
2020/12/21 03:54:23;;;;;;;30.50;3.10;;;9.80;99.90;;;;;;5091848;28;20111;-51
2020/12/21 03:56:49;;;;;;;30.45;3.67;;;9.80;99.90;;;;;;5091792;28;20024;-52
2020/12/21 03:59:14;;;;;;;33.45;3.78;;;9.90;99.90;;;;;;5092065;28;20061;-50
2020/12/21 04:01:40;;;;;;;25.15;3.65;;;9.80;99.90;;;;;;5091768;28;20032;-51
2020/12/21 04:04:06;;;;;;;34.10;3.53;;;9.80;99.90;;;;;;5091614;28;20039;-52
2020/12/21 04:06:35;;;;;;;25.88;3.25;;;9.80;99.90;;;;;;5091740;28;20063;-52
2020/12/21 04:09:02;;;;;;;19.65;3.03;;;9.80;99.90;;;;;;5091823;28;20036;-53
2020/12/21 04:11:28;;;;;;;34.72;3.80;;;9.80;99.90;;;;;;5091558;28;20059;-50
2020/12/21 04:13:54;;;;;;;42.33;3.40;;;9.80;99.90;;;;;;5091430;28;20086;-49
2020/12/21 04:16:19;;;;;;;47.97;4.75;;;9.80;99.90;;;;;;5091574;28;20573;-52
2020/12/21 04:18:45;;;;;;;43.40;4.47;;;9.80;99.90;;;;;;5091398;28;20036;-50
2020/12/21 04:21:11;;;;;;;35.85;3.38;;;9.80;99.90;;;;;;5091527;28;20078;-50
2020/12/21 04:23:37;;;;;;;34.00;3.80;;;9.80;99.90;;;;;;5091634;28;20052;-50
2020/12/21 04:26:04;;;;;;;54.67;4.85;;;9.70;99.90;;;;;;5091526;28;20035;-53
2020/12/21 04:28:30;;;;;;;46.53;5.03;;;9.80;99.90;;;;;;5091304;28;20496;-52
2020/12/21 04:30:55;;;;;;;42.80;5.93;;;9.80;99.90;;;;;;5091098;28;20024;-49
2020/12/21 04:33:21;;;;;;;36.22;6.05;;;9.80;99.90;;;;;;5086632;28;20039;-50
2020/12/21 04:35:47;;;;;;;47.63;5.82;;;9.90;99.90;;;;;;5091232;28;20032;-53
2020/12/21 04:38:12;;;;;;;42.22;5.20;;;9.90;99.90;;;;;;5090881;28;20075;-53
2020/12/21 04:40:38;;;;;;;31.90;5.43;;;9.90;99.90;;;;;;5091038;28;20063;-54
2020/12/21 04:43:05;;;;;;;39.72;6.30;;;9.90;99.90;;;;;;5091045;28;20032;-53
2020/12/21 04:45:33;;;;;;;47.92;5.32;;;9.90;99.90;;;;;;5091053;28;20032;-53
2020/12/21 04:48:06;;;;;;;39.65;4.93;;;10.00;99.90;;;;;;5090658;28;20149;-54
2020/12/21 04:50:32;;;;;;;51.72;6.82;;;10.00;99.90;;;;;;5090739;28;20762;-54
2020/12/21 04:52:59;;;;;;;47.15;6.55;;;10.00;99.90;;;;;;5087957;28;20083;-51
2020/12/21 04:55:25;;;;;;;41.90;5.03;;;10.10;99.90;;;;;;5070488;28;20116;-53
2020/12/21 04:57:57;;;;;;;45.92;5.70;;;10.10;99.90;;;;;;5052909;28;20371;-50
2020/12/21 05:00:28;;;;;;;47.27;4.93;;;10.10;99.90;;;;;;5070086;28;20589;-51
2020/12/21 05:02:54;;;;;;;56.85;6.60;;;10.20;99.90;;;;;;5070609;28;20024;-50
2020/12/21 05:05:29;;;;;;;54.03;5.10;;;10.20;99.90;;;;;;5070254;28;20024;-52
2020/12/21 05:07:55;;;;;;;50.60;5.63;;;10.20;99.90;;;;;;5070245;28;20116;-49
2020/12/21 05:10:20;;;;;;;44.95;4.60;;;10.30;99.90;;;;;;5069978;28;20201;-50
2020/12/21 05:12:46;;;;;;;45.35;5.75;;;10.30;99.90;;;;;;5070104;28;20035;-50
2020/12/21 05:15:16;;;;;;;53.80;5.68;;;10.30;99.90;;;;;;5069648;28;20024;-49
2020/12/21 05:17:42;;;;;;;44.20;5.75;;;10.20;99.90;;;;;;5070177;28;20044;-49
2020/12/21 05:20:08;;;;;;;34.40;4.80;;;10.20;99.90;;;;;;5070152;28;20043;-50
2020/12/21 05:22:33;;;;;;;33.35;4.97;;;10.30;99.90;;;;;;5069800;28;20051;-50
2020/12/21 05:25:09;;;;;;;31.00;5.40;;;10.30;99.90;;;;;;5069934;28;20446;-49
2020/12/21 05:27:35;;;;;;;40.28;4.97;;;10.30;99.90;;;;;;5069948;28;20037;-51
2020/12/21 05:30:00;;;;;;;29.42;4.93;;;10.40;99.90;;;;;;5070110;28;20032;-50
2020/12/21 05:32:26;;;;;;;59.40;6.07;;;10.40;99.90;;;;;;5070045;28;20036;-51
2020/12/21 05:35:03;;;;;;;42.50;6.35;;;10.40;99.90;;;;;;5069601;28;20364;-49
2020/12/21 05:37:30;;;;;;;35.13;4.90;;;10.40;99.90;;;;;;5069446;28;20052;-49
2020/12/21 05:39:56;;;;;;;36.50;5.10;;;10.50;99.90;;;;;;5069399;28;20036;-50
2020/12/21 05:42:23;;;;;;;50.38;6.28;;;10.50;99.90;;;;;;5069352;28;20040;-50
2020/12/21 05:44:53;;;;;;;49.65;5.97;;;10.50;99.90;;;;;;5069533;28;20032;-50
2020/12/21 05:47:18;;;;;;;32.42;3.75;;;10.40;99.90;;;;;;5067944;28;20028;-50
2020/12/21 05:49:58;;;;;;;41.03;4.85;;;10.40;99.90;;;;;;5085270;28;20450;-49
2020/12/21 05:52:32;;;;;;;32.80;4.22;;;10.50;99.90;;;;;;5089577;28;20460;-49
2020/12/21 05:55:08;;;;;;;45.58;5.40;;;10.50;99.90;;;;;;5089329;28;20024;-48
2020/12/21 05:57:34;;;;;;;43.03;5.05;;;10.50;99.90;;;;;;5082705;28;20048;-51
2020/12/21 06:00:03;;;;;;;46.30;6.13;;;10.50;99.90;;;;;;5069038;28;20028;-51
2020/12/21 06:02:32;;;;;;;46.65;4.63;;;10.50;99.90;;;;;;5066401;28;20120;-51
2020/12/21 06:05:06;;;;;;;30.52;4.88;;;10.40;99.90;;;;;;5068506;28;20125;-53
2020/12/21 06:07:33;;;;;;;32.85;4.63;;;10.50;99.90;;;;;;5067898;28;20040;-51
2020/12/21 06:10:02;;;;;;;35.15;5.18;;;10.50;99.90;;;;;;5068288;28;20098;-53
2020/12/21 06:12:32;;;;;;;31.13;5.63;;;10.50;99.90;;;;;;5068112;28;20446;-51
2020/12/21 06:15:03;;;;;;;44.75;5.63;;;10.50;99.90;;;;;;5067792;28;20044;-55
2020/12/21 06:17:30;;;;;;;57.85;5.45;;;10.50;99.90;;;;;;5067896;28;20048;-52
2020/12/21 06:20:07;;;;;;;34.33;4.97;;;10.50;99.90;;;;;;5068301;28;20033;-52
2020/12/21 06:22:34;;;;;;;33.40;4.68;;;10.50;99.90;;;;;;5067533;28;20060;-49
2020/12/21 06:25:00;;;;;;;33.42;4.60;;;10.50;99.90;;;;;;5069379;28;20125;-50
2020/12/21 06:27:40;;;;;;;28.30;4.03;;;10.50;99.90;;;;;;5068629;28;20040;-50
2020/12/21 06:30:07;;;;;;;38.13;4.75;;;10.50;99.90;;;;;;5068028;28;20581;-51
2020/12/21 06:32:34;;;;;;;39.53;5.32;;;10.50;99.90;;;;;;5067607;28;20017;-51
2020/12/21 06:35:01;;;;;;;33.72;4.93;;;10.50;99.90;;;;;;5068052;28;20104;-50
2020/12/21 06:37:27;;;;;;;29.27;5.20;;;10.50;99.90;;;;;;5067788;28;20048;-52
2020/12/21 06:40:04;;;;;;;25.42;4.18;;;10.50;99.90;;;;;;5068204;28;20104;-50
2020/12/21 06:42:31;;;;;;;41.92;4.97;;;10.50;99.90;;;;;;5067377;28;20033;-51
2020/12/21 06:44:57;;;;;;;34.20;4.72;;;10.50;99.90;;;;;;5067946;28;20078;-49
2020/12/21 06:47:27;;;;;;;38.67;5.03;;;10.50;99.90;;;;;;5067579;28;20032;-51
2020/12/21 06:49:58;;;;;;;43.40;5.75;;;10.50;99.90;;;;;;5067137;28;20059;-49
2020/12/21 06:52:24;;;;;;;41.17;5.38;;;10.50;99.90;;;;;;5067698;28;20062;-50
2020/12/21 06:54:50;;;;;;;37.22;4.60;;;10.50;99.90;;;;;;5067440;28;20546;-51
2020/12/21 06:57:16;;;;;;;44.55;5.00;;;10.50;99.90;;;;;;5080316;28;20130;-53
2020/12/21 06:59:42;;;;;;;40.30;4.75;;;10.40;99.90;;;;;;5085605;28;20036;-52
2020/12/21 07:02:08;;;;;;;37.05;6.03;;;10.40;99.90;;;;;;5084201;28;20712;-51
2020/12/21 07:04:34;;;;;;;47.75;4.97;;;10.40;99.90;;;;;;5082071;28;20386;-50
2020/12/21 07:07:03;;;;;;;42.15;5.05;;;10.50;99.90;;;;;;5082293;28;20028;-53
2020/12/21 07:09:34;;;;;;;42.80;6.15;;;10.40;99.90;;;;;;5080349;28;20039;-52
2020/12/21 07:12:06;;;;;;;43.83;5.88;;;10.40;99.90;;;;;;5079903;28;20033;-52
2020/12/21 07:14:37;;;;;;;52.95;5.75;;;10.40;99.90;;;;;;5080012;28;20032;-53
2020/12/21 07:17:07;;;;;;;34.92;5.10;;;10.40;99.90;;;;;;5070296;28;20032;-53
2020/12/21 07:19:35;;;;;;;57.63;5.50;;;10.40;99.90;;;;;;5070800;28;20421;-51
2020/12/21 07:22:04;;;;;;;43.10;4.55;;;10.40;99.90;;;;;;5080231;28;20036;-51
2020/12/21 07:24:30;;;;;;;29.05;3.75;;;10.40;99.90;;;;;;5089685;28;20079;-53
2020/12/21 07:26:56;;;;;;;47.88;5.93;;;10.40;99.90;;;;;;5089806;28;20698;-52
2020/12/21 07:29:21;;;;;;;36.50;5.78;;;10.50;99.90;;;;;;5070558;28;20056;-54
2020/12/21 07:31:47;;;;;;;48.42;6.72;;;10.50;99.90;;;;;;5070593;28;20043;-51
2020/12/21 07:34:14;;;;;;;45.70;6.65;;;10.50;99.90;;;;;;5069495;28;20040;-53
2020/12/21 07:36:40;;;;;;;32.05;5.80;;;10.40;99.90;;;;;;5087341;28;20123;-56
2020/12/21 07:39:14;;;;;;;37.90;5.13;;;10.50;99.90;;;;;;5081442;28;20682;-55
2020/12/21 07:41:51;;;;;;;45.72;5.95;;;10.40;99.90;;;;;;5090291;28;20024;-55
2020/12/21 07:44:22;;;;;;;50.25;6.13;;;10.50;99.90;;;;;;5084420;28;20367;-53
2020/12/21 07:47:23;;;;;;;46.90;6.40;;;10.40;99.90;;;;;;5090655;28;20028;-57
2020/12/21 07:49:49;;;;;;;45.53;6.20;;;10.50;99.90;;;;;;5077463;28;20131;-56
2020/12/21 07:52:15;;;;;;;37.38;4.45;;;10.40;99.90;;;;;;5087220;28;20115;-56
2020/12/21 07:54:44;;;;;;;46.13;6.57;;;10.40;99.90;;;;;;5078872;28;20044;-55
2020/12/21 07:57:12;;;;;;;41.53;5.28;;;10.40;99.90;;;;;;5088097;28;20052;-57
2020/12/21 07:59:39;;;;;;;62.78;6.10;;;10.40;99.90;;;;;;5088660;28;20124;-58
2020/12/21 08:02:11;;;;;;;47.08;4.65;;;10.40;99.90;;;;;;5078503;28;20454;-60
2020/12/21 08:04:37;;;;;;;55.78;6.03;;;10.50;99.90;;;;;;5082472;28;20406;-58
2020/12/21 08:07:10;;;;;;;50.90;5.93;;;10.50;99.90;;;;;;5088443;28;20097;-59
2020/12/21 08:09:39;;;;;;;;;;;10.50;99.90;;;;;;5080955;28;20032;-57
2020/12/21 08:12:15;;;;;;;55.33;6.00;;;10.50;99.90;;;;;;5084609;28;19912;-59
2020/12/21 08:14:42;;;;;;;55.95;5.75;;;10.50;99.90;;;;;;5084045;28;20047;-59
2020/12/21 08:17:19;;;;;;;50.30;5.57;;;10.40;99.90;;;;;;5081726;28;20423;-59
2020/12/21 08:19:49;;;;;;;69.47;7.47;;;10.40;99.90;;;;;;5077004;28;20028;-56
2020/12/21 08:22:24;;;;;;;77.63;7.85;;;10.50;99.90;;;;;;5072394;28;20485;-57
2020/12/21 08:25:06;;;;;;;48.03;6.03;;;10.50;99.90;;;;;;5080330;28;20036;-58
2020/12/21 08:27:33;;;;;;;49.60;6.18;;;10.60;99.90;;;;;;5082357;28;20456;-58
2020/12/21 08:30:25;;;;;;;51.97;6.30;;;10.50;99.90;;;;;;5088219;28;20701;-59
2020/12/21 08:32:52;;;;;;;43.58;4.45;;;10.50;99.90;;;;;;5076517;28;20040;-58
2020/12/21 08:35:29;;;;;;;56.50;5.13;;;10.50;99.90;;;;;;5068802;28;20426;-59
2020/12/21 08:38:13;;;;;;;47.70;5.80;;;10.50;99.90;;;;;;5069222;28;20037;-60
2020/12/21 08:40:40;;;;;;;53.45;5.80;;;10.60;99.90;;;;;;5069693;28;20031;-60
2020/12/21 08:43:06;;;;;;;66.13;6.43;;;10.60;99.90;;;;;;5069426;28;20032;-60
2020/12/21 08:45:37;;;;;;;34.70;4.63;;;10.50;99.90;;;;;;5069236;28;20035;-59
2020/12/21 08:48:02;;;;;;;56.90;6.15;;;10.60;99.90;;;;;;5069364;28;20470;-60
2020/12/21 08:50:28;;;;;;;70.75;5.88;;;10.60;99.90;;;;;;5051164;28;20036;-60
2020/12/21 08:52:54;;;;;;;43.78;5.05;;;10.60;99.90;;;;;;5069045;28;20040;-58
2020/12/21 08:55:19;;;;;;;52.00;5.55;;;10.60;99.90;;;;;;5053138;28;20052;-59
2020/12/21 08:57:48;;;;;;;68.25;6.25;;;10.70;99.90;;;;;;5074499;28;20582;-60
2020/12/21 09:00:13;;;;;;;45.58;5.78;;;10.60;99.90;;;;;;5066830;28;20036;-58
2020/12/21 09:02:39;;;;;;;50.38;5.85;;;10.60;99.90;;;;;;5066052;28;20032;-58
2020/12/21 09:05:05;;;;;;;45.88;5.05;;;10.70;99.90;;;;;;5080386;28;20085;-59
2020/12/21 09:07:31;;;;;;;43.05;6.32;;;10.70;99.90;;;;;;5086297;28;20148;-60
2020/12/21 09:09:59;;;;;;;59.58;6.35;;;10.70;99.90;;;;;;5085431;28;20032;-60
2020/12/21 09:12:25;;;;;;;70.47;7.85;;;10.70;99.90;;;;;;5082465;28;20589;-59
2020/12/21 09:14:50;;;;;;;63.40;6.53;;;10.70;99.90;;;;;;5082819;28;20143;-60
2020/12/21 09:17:16;;;;;;;58.25;5.90;;;10.80;99.90;;;;;;5085493;28;20059;-61
2020/12/21 09:19:42;;;;;;;53.47;6.20;;;10.70;99.90;;;;;;5077646;28;20048;-60
2020/12/21 09:22:10;;;;;;;64.60;6.38;;;10.80;99.90;;;;;;5076142;28;20737;-60
2020/12/21 09:24:36;;;;;;;72.53;7.22;;;10.80;99.90;;;;;;5079379;28;20032;-61
2020/12/21 09:27:01;;;;;;;57.30;7.00;;;10.80;99.90;;;;;;5067214;28;20094;-59
2020/12/21 09:29:27;;;;;;;53.38;6.30;;;10.90;99.90;;;;;;5083489;28;20036;-61
2020/12/21 09:31:53;;;;;;;69.18;8.05;;;10.90;99.90;;;;;;5070963;28;20039;-61
2020/12/21 09:34:19;;;;;;;52.15;6.68;;;10.80;99.90;;;;;;5079756;28;21493;-60
2020/12/21 09:36:45;;;;;;;58.75;6.38;;;10.90;99.90;;;;;;5067935;28;20078;-60
2020/12/21 09:39:11;;;;;;;77.43;7.65;;;10.90;99.90;;;;;;5068154;28;20052;-60
2020/12/21 09:41:37;;;;;;;64.22;7.45;;;10.90;99.90;;;;;;5076770;28;20042;-62
2020/12/21 09:44:03;;;;;;;50.80;6.18;;;10.90;99.90;;;;;;5084117;28;20024;-60
2020/12/21 09:46:29;;;;;;;51.97;5.80;;;11.00;99.90;;;;;;5079870;28;20036;-64
2020/12/21 09:48:55;;;;;;;58.60;6.53;;;10.90;99.90;;;;;;5080128;28;20028;-59
2020/12/21 09:51:21;;;;;;;61.65;5.63;;;11.00;99.90;;;;;;5068000;28;20041;-56
2020/12/21 09:53:47;;;;;;;52.03;6.88;;;11.00;99.90;;;;;;5072458;28;20032;-62
2020/12/21 09:56:14;;;;;;;43.60;5.18;;;11.00;99.90;;;;;;5088470;28;20028;-57
2020/12/21 09:58:41;;;;;;;42.88;7.05;;;11.10;99.90;;;;;;5071926;28;20049;-56
2020/12/21 10:01:08;;;;;;;32.42;4.97;;;11.10;99.90;;;;;;5070010;28;20040;-50
2020/12/21 10:03:38;;;;;;;57.30;7.80;;;11.10;99.90;;;;;;5074857;28;20031;-54
2020/12/21 10:06:04;;;;;;;53.97;6.18;;;11.10;99.90;;;;;;5067682;28;20111;-55
2020/12/21 10:08:29;;;;;;;50.65;5.30;;;11.10;99.90;;;;;;5068120;28;20029;-54
2020/12/21 10:10:55;;;;;;;53.45;4.63;;;11.10;99.90;;;;;;5068358;28;20585;-55
2020/12/21 10:13:21;;;;;;;32.72;4.43;;;11.20;99.90;;;;;;5067779;28;20031;-53
2020/12/21 10:15:47;;;;;;;64.20;6.68;;;11.20;99.90;;;;;;5070234;28;20042;-52
2020/12/21 10:18:13;;;;;;;73.00;7.72;;;11.20;99.90;;;;;;5067951;28;20044;-53
2020/12/21 10:20:38;;;;;;;62.15;5.05;;;11.20;99.90;;;;;;5057076;28;20047;-54
2020/12/21 10:23:04;;;;;;;43.08;5.20;;;11.20;99.90;;;;;;5067851;28;20060;-55
2020/12/21 10:25:29;;;;;;;61.20;5.50;;;11.30;99.90;;;;;;5068581;28;20042;-51
2020/12/21 10:27:55;;;;;;;55.10;5.18;;;11.30;99.90;;;;;;5068190;28;20496;-51
2020/12/21 10:30:21;;;;;;;40.80;3.92;;;11.40;99.90;;;;;;5068928;28;20028;-49
2020/12/21 10:32:46;;;;;;;42.25;5.13;;;11.40;99.90;;;;;;5071969;28;20123;-48
2020/12/21 10:35:12;;;;;;;34.10;4.57;;;11.50;99.90;;;;;;5072356;28;20100;-51
2020/12/21 10:37:38;;;;;;;35.75;3.65;;;11.60;99.90;;;;;;5071911;28;20052;-51
2020/12/21 10:40:05;;;;;;;45.90;5.18;;;11.60;99.90;;;;;;5072013;28;20036;-48
2020/12/21 10:42:31;;;;;;;30.50;4.32;;;11.60;99.90;;;;;;5071896;28;20024;-48
2020/12/21 10:44:57;;;;;;;49.15;4.35;;;11.60;99.90;;;;;;5053645;28;20052;-50
2020/12/21 10:47:23;;;;;;;39.53;3.88;;;11.60;99.90;;;;;;5071494;28;20054;-48
2020/12/21 10:49:48;;;;;;;43.70;4.57;;;11.70;99.90;;;;;;5071838;28;20036;-48
2020/12/21 10:52:14;;;;;;;29.67;4.28;;;11.70;99.90;;;;;;5071207;28;20036;-48
2020/12/21 10:54:39;;;;;;;35.92;2.90;;;11.70;99.90;;;;;;5071787;28;20033;-49
2020/12/21 10:57:06;;;;;;;34.80;3.88;;;11.80;99.90;;;;;;5071513;28;20033;-47
2020/12/21 10:59:34;;;;;;;38.17;3.08;;;11.90;99.90;;;;;;5071862;28;20028;-51
2020/12/21 11:02:00;;;;;;;26.48;3.13;;;11.90;99.90;;;;;;5073934;28;20031;-48
2020/12/21 11:04:26;;;;;;;25.15;3.00;;;12.00;99.90;;;;;;5091161;28;20036;-49
2020/12/21 11:06:51;;;;;;;38.35;3.38;;;12.00;99.90;;;;;;5074679;28;20150;-48
2020/12/21 11:09:17;;;;;;;36.15;3.70;;;12.00;99.90;;;;;;5071009;28;20044;-48
2020/12/21 11:11:43;;;;;;;27.88;3.55;;;12.00;99.90;;;;;;5071640;28;20031;-49
2020/12/21 11:14:08;;;;;;;23.15;2.85;;;12.00;99.90;;;;;;5071178;28;20035;-49
2020/12/21 11:16:35;;;;;;;17.92;3.10;;;12.00;99.90;;;;;;5071202;28;20025;-50
2020/12/21 11:19:00;;;;;;;37.10;3.83;;;12.10;99.90;;;;;;5070716;28;20036;-51
2020/12/21 11:21:26;;;;;;;20.13;3.25;;;12.10;99.90;;;;;;5071139;28;20032;-52
2020/12/21 11:23:52;;;;;;;27.92;2.83;;;12.20;99.90;;;;;;5070771;28;20486;-49
2020/12/21 11:26:21;;;;;;;19.05;2.35;;;12.20;99.90;;;;;;5071029;28;20040;-49
2020/12/21 11:28:46;;;;;;;26.55;3.22;;;12.30;99.90;;;;;;5071077;28;20029;-49
2020/12/21 11:31:16;;;;;;;34.30;3.80;;;12.30;99.90;;;;;;5071046;28;20757;-51
2020/12/21 11:33:42;;;;;;;21.27;3.13;;;12.30;99.90;;;;;;5070776;28;20028;-47
2020/12/21 11:36:07;;;;;;;20.35;3.10;;;12.30;99.90;;;;;;5071083;28;20426;-47
2020/12/21 11:38:33;;;;;;;34.28;5.57;;;12.40;99.90;;;;;;5070432;28;20036;-49
2020/12/21 11:40:59;;;;;;;28.55;4.00;;;12.40;99.90;;;;;;5070436;28;20029;-48
2020/12/21 11:43:25;;;;;;;23.30;2.72;;;12.50;99.90;;;;;;5070643;28;20036;-47
2020/12/21 11:45:51;;;;;;;28.08;4.40;;;12.50;99.90;;;;;;5070830;28;20038;-47
2020/12/21 11:48:17;;;;;;;15.10;2.08;;;12.60;99.90;;;;;;5070550;28;20569;-50
2020/12/21 11:50:43;;;;;;;21.80;2.72;;;12.60;99.90;;;;;;5070956;28;20043;-48
2020/12/21 11:53:08;;;;;;;22.00;3.05;;;12.70;99.90;;;;;;5070044;28;20037;-48
2020/12/21 11:55:34;;;;;;;26.00;3.00;;;12.80;99.90;;;;;;5070799;28;20033;-48
2020/12/21 11:58:00;;;;;;;26.00;2.83;;;12.80;99.90;;;;;;5070279;28;20048;-50
2020/12/21 12:00:26;;;;;;;15.80;2.08;;;12.90;99.90;;;;;;5070532;28;20039;-58
2020/12/21 12:02:54;;;;;;;16.27;2.50;;;12.90;99.90;;;;;;5070178;28;20032;-55
2020/12/21 12:05:25;;;;;;;21.77;2.80;;;12.90;99.90;;;;;;5070606;28;20036;-58
2020/12/21 12:07:50;;;;;;;20.35;2.50;;;12.90;99.90;;;;;;5070269;28;20142;-59
2020/12/21 12:10:16;;;;;;;26.52;3.15;;;12.90;99.90;;;;;;5052451;28;20123;-60
2020/12/21 12:12:42;;;;;;;27.40;3.72;;;12.90;99.90;;;;;;5070053;28;20033;-59
2020/12/21 12:15:07;;;;;;;18.58;4.07;;;12.90;99.90;;;;;;5070271;28;20037;-55
2020/12/21 12:17:33;;;;;;;34.78;3.53;;;12.90;99.90;;;;;;5069964;28;20069;-51
2020/12/21 12:19:59;;;;;;;17.90;2.80;;;12.90;99.90;;;;;;5072454;28;20029;-51
2020/12/21 12:22:25;;;;;;;20.17;2.35;;;12.90;99.90;;;;;;5069971;28;20067;-49
2020/12/21 12:24:50;;;;;;;28.85;3.90;;;12.80;99.90;;;;;;5051846;28;20041;-50
2020/12/21 12:27:16;;;;;;;37.45;4.60;;;12.90;99.90;;;;;;5069928;28;20029;-50
2020/12/21 12:29:42;;;;;;;27.50;3.42;;;12.90;99.90;;;;;;5069872;28;20032;-51
2020/12/21 12:32:07;;;;;;;34.90;3.55;;;12.80;99.90;;;;;;5051930;28;20028;-52
2020/12/21 12:34:33;;;;;;;24.05;2.92;;;12.80;99.90;;;;;;5069966;28;20044;-50
2020/12/21 12:36:58;;;;;;;39.03;4.10;;;12.90;99.90;;;;;;5069763;28;20166;-49